createdAt,value
2017-09-03T00:00:54.475Z,13.13
2017-09-03T00:01:55.469Z,13.13
2017-09-03T00:02:56.160Z,13.20
2017-09-03T00:03:56.856Z,13.09
2017-09-03T00:04:57.537Z,13.15
2017-09-03T00:05:58.225Z,13.15
2017-09-03T00:06:59.166Z,13.11
2017-09-03T00:07:59.857Z,13.03
2017-09-03T00:09:00.544Z,13.08
2017-09-03T00:10:01.233Z,13.05
2017-09-03T00:11:01.923Z,12.95
2017-09-03T00:12:02.615Z,13.01
2017-09-03T00:13:03.309Z,12.97
2017-09-03T00:14:03.996Z,12.97
2017-09-03T00:15:04.685Z,12.97
2017-09-03T00:16:05.375Z,12.94
2017-09-03T00:17:06.314Z,12.98
2017-09-03T00:18:07.013Z,13.03
2017-09-03T00:19:07.699Z,12.93
2017-09-03T00:20:08.388Z,12.91
2017-09-03T00:21:09.076Z,12.87
2017-09-03T00:22:10.012Z,12.94
2017-09-03T00:23:10.710Z,12.94
2017-09-03T00:24:11.403Z,12.86
2017-09-03T00:25:12.094Z,12.75
2017-09-03T00:26:12.787Z,12.72
2017-09-03T00:27:13.743Z,12.79
2017-09-03T00:28:14.432Z,12.76
2017-09-03T00:29:15.127Z,12.75
2017-09-03T00:30:15.812Z,12.80
2017-09-03T00:31:16.500Z,12.70
2017-09-03T00:32:17.442Z,12.67
2017-09-03T00:33:18.130Z,12.67
2017-09-03T00:34:18.815Z,12.47
2017-09-03T00:35:19.509Z,12.61
2017-09-03T00:36:20.205Z,12.58
2017-09-03T00:37:21.144Z,12.64
2017-09-03T00:38:21.833Z,12.60
2017-09-03T00:39:22.524Z,12.47
2017-09-03T00:40:23.222Z,12.49
2017-09-03T00:41:23.906Z,12.55
2017-09-03T00:42:24.596Z,12.55
2017-09-03T00:43:25.282Z,12.55
2017-09-03T00:44:25.975Z,12.37
2017-09-03T00:45:26.661Z,12.40
2017-09-03T00:46:27.349Z,12.42
2017-09-03T00:47:28.341Z,12.43
2017-09-03T00:48:29.042Z,12.43
2017-09-03T00:49:29.725Z,12.40
2017-09-03T00:50:30.417Z,12.43
2017-09-03T00:51:31.112Z,12.40
2017-09-03T00:52:32.110Z,12.36
2017-09-03T00:53:32.801Z,12.32
2017-09-03T00:54:33.493Z,12.36
2017-09-03T00:55:34.181Z,12.39
2017-09-03T00:56:34.869Z,12.28
2017-09-03T00:57:35.804Z,12.24
2017-09-03T00:58:36.493Z,12.21
2017-09-03T00:59:37.183Z,12.24
2017-09-03T01:00:37.874Z,12.21
2017-09-03T01:01:38.562Z,12.17
2017-09-03T01:02:39.502Z,12.18
2017-09-03T01:03:40.190Z,12.20
2017-09-03T01:04:40.877Z,12.21
2017-09-03T01:05:41.564Z,12.17
2017-09-03T01:06:42.249Z,12.12
2017-09-03T01:07:43.200Z,12.12
2017-09-03T01:08:43.890Z,12.09
2017-09-03T01:09:44.582Z,12.10
2017-09-03T01:10:45.284Z,12.10
2017-09-03T01:11:45.969Z,12.03
2017-09-03T01:12:46.904Z,11.99
2017-09-03T01:13:47.592Z,12.03
2017-09-03T01:14:48.282Z,11.99
2017-09-03T01:15:48.973Z,12.03
2017-09-03T01:16:49.674Z,12.00
2017-09-03T01:17:50.614Z,12.02
2017-09-03T01:18:51.304Z,11.99
2017-09-03T01:19:51.992Z,11.95
2017-09-03T01:20:52.708Z,11.94
2017-09-03T01:21:53.374Z,11.87
2017-09-03T01:22:54.329Z,11.95
2017-09-03T01:23:55.017Z,11.97
2017-09-03T01:24:55.712Z,11.88
2017-09-03T01:25:56.401Z,11.83
2017-09-03T01:26:57.088Z,11.87
2017-09-03T01:27:58.029Z,11.84
2017-09-03T01:28:58.719Z,11.80
2017-09-03T01:29:59.410Z,11.70
2017-09-03T01:31:00.095Z,11.72
2017-09-03T01:32:00.785Z,11.70
2017-09-03T01:33:01.726Z,11.70
2017-09-03T01:34:02.416Z,11.69
2017-09-03T01:35:03.110Z,11.68
2017-09-03T01:36:03.799Z,11.65
2017-09-03T01:37:04.493Z,11.69
2017-09-03T01:38:05.430Z,11.68
2017-09-03T01:39:06.121Z,11.70
2017-09-03T01:40:06.818Z,11.72
2017-09-03T01:41:07.505Z,11.63
2017-09-03T01:42:08.189Z,11.65
2017-09-03T01:43:09.131Z,11.70
2017-09-03T01:44:09.815Z,11.68
2017-09-03T01:45:10.503Z,11.70
2017-09-03T01:46:11.188Z,11.75
2017-09-03T01:47:11.878Z,11.73
2017-09-03T01:48:12.812Z,11.72
2017-09-03T01:49:13.498Z,11.66
2017-09-03T01:50:14.184Z,11.69
2017-09-03T01:51:14.873Z,11.69
2017-09-03T01:52:15.559Z,11.72
2017-09-03T01:53:16.497Z,11.70
2017-09-03T01:54:17.187Z,11.73
2017-09-03T01:55:17.875Z,11.68
2017-09-03T01:56:18.561Z,11.77
2017-09-03T01:57:19.247Z,11.73
2017-09-03T01:58:20.192Z,11.66
2017-09-03T01:59:20.887Z,11.72
2017-09-03T02:00:21.577Z,11.70
2017-09-03T02:01:22.267Z,11.70
2017-09-03T02:02:22.956Z,11.70
2017-09-03T02:03:23.643Z,11.70
2017-09-03T02:04:24.335Z,11.68
2017-09-03T02:05:25.025Z,11.55
2017-09-03T02:06:25.718Z,11.63
2017-09-03T02:07:26.407Z,11.57
2017-09-03T02:08:27.344Z,11.59
2017-09-03T02:09:28.032Z,11.48
2017-09-03T02:10:28.719Z,11.45
2017-09-03T02:11:29.409Z,11.50
2017-09-03T02:12:30.100Z,11.48
2017-09-03T02:13:31.042Z,11.41
2017-09-03T02:14:31.730Z,11.47
2017-09-03T02:15:32.417Z,11.51
2017-09-03T02:16:33.106Z,11.45
2017-09-03T02:17:33.798Z,11.50
2017-09-03T02:18:34.483Z,11.44
2017-09-03T02:19:35.172Z,11.43
2017-09-03T02:20:35.858Z,11.41
2017-09-03T02:21:36.549Z,11.36
2017-09-03T02:22:37.237Z,11.37
2017-09-03T02:23:38.190Z,11.36
2017-09-03T02:24:38.880Z,11.32
2017-09-03T02:25:39.569Z,11.29
2017-09-03T02:26:40.257Z,11.29
2017-09-03T02:27:40.951Z,11.25
2017-09-03T02:28:41.895Z,11.27
2017-09-03T02:29:42.582Z,11.27
2017-09-03T02:30:43.267Z,11.19
2017-09-03T02:31:43.963Z,11.23
2017-09-03T02:32:44.650Z,11.25
2017-09-03T02:33:45.587Z,11.23
2017-09-03T02:34:46.275Z,11.23
2017-09-03T02:35:46.965Z,11.27
2017-09-03T02:36:47.653Z,11.29
2017-09-03T02:37:48.340Z,11.23
2017-09-03T02:38:49.277Z,11.22
2017-09-03T02:39:49.966Z,11.22
2017-09-03T02:40:50.657Z,11.26
2017-09-03T02:41:51.346Z,11.25
2017-09-03T02:42:52.034Z,11.23
2017-09-03T02:43:52.969Z,11.26
2017-09-03T02:44:53.658Z,11.18
2017-09-03T02:45:54.344Z,11.29
2017-09-03T02:46:55.032Z,11.22
2017-09-03T02:47:55.720Z,11.25
2017-09-03T02:48:56.659Z,11.26
2017-09-03T02:49:57.347Z,11.25
2017-09-03T02:50:58.041Z,11.25
2017-09-03T02:51:58.724Z,11.23
2017-09-03T02:52:59.413Z,11.29
2017-09-03T02:54:00.354Z,11.23
2017-09-03T02:55:01.043Z,11.23
2017-09-03T02:56:01.730Z,11.27
2017-09-03T02:57:02.418Z,11.19
2017-09-03T02:58:03.103Z,11.23
2017-09-03T02:59:04.044Z,11.22
2017-09-03T03:00:04.733Z,11.26
2017-09-03T03:01:05.421Z,11.35
2017-09-03T03:02:06.115Z,11.25
2017-09-03T03:03:06.794Z,11.33
2017-09-03T03:04:07.735Z,11.26
2017-09-03T03:05:08.422Z,11.36
2017-09-03T03:06:09.108Z,11.36
2017-09-03T03:07:09.803Z,11.37
2017-09-03T03:08:10.491Z,11.30
2017-09-03T03:09:11.428Z,11.35
2017-09-03T03:10:12.126Z,11.26
2017-09-03T03:11:12.811Z,11.30
2017-09-03T03:12:13.502Z,11.35
2017-09-03T03:13:14.186Z,11.26
2017-09-03T03:14:15.128Z,11.25
2017-09-03T03:15:15.816Z,11.27
2017-09-03T03:16:16.501Z,11.37
2017-09-03T03:17:17.188Z,11.43
2017-09-03T03:18:17.881Z,11.29
2017-09-03T03:19:18.814Z,11.30
2017-09-03T03:20:19.503Z,11.30
2017-09-03T03:21:20.197Z,11.32
2017-09-03T03:22:20.884Z,11.30
2017-09-03T03:23:21.569Z,11.33
2017-09-03T03:24:22.507Z,11.35
2017-09-03T03:25:23.200Z,11.27
2017-09-03T03:26:23.891Z,11.25
2017-09-03T03:27:24.584Z,11.29
2017-09-03T03:28:25.273Z,11.36
2017-09-03T03:29:26.213Z,11.25
2017-09-03T03:30:26.905Z,11.36
2017-09-03T03:31:27.589Z,11.33
2017-09-03T03:32:28.279Z,11.36
2017-09-03T03:33:28.976Z,11.35
2017-09-03T03:34:29.907Z,11.33
2017-09-03T03:35:30.597Z,11.25
2017-09-03T03:36:31.288Z,11.26
2017-09-03T03:37:31.975Z,11.35
2017-09-03T03:38:32.661Z,11.32
2017-09-03T03:39:33.601Z,11.30
2017-09-03T03:40:34.292Z,11.33
2017-09-03T03:41:34.978Z,11.32
2017-09-03T03:42:35.667Z,11.30
2017-09-03T03:43:36.357Z,11.27
2017-09-03T03:44:37.295Z,11.30
2017-09-03T03:45:37.982Z,11.27
2017-09-03T03:46:38.672Z,11.40
2017-09-03T03:47:39.359Z,11.29
2017-09-03T03:48:40.047Z,11.36
2017-09-03T03:49:40.980Z,11.43
2017-09-03T03:50:41.670Z,11.29
2017-09-03T03:51:42.358Z,11.33
2017-09-03T03:52:43.047Z,11.32
2017-09-03T03:53:43.736Z,11.33
2017-09-03T03:54:44.671Z,11.36
2017-09-03T03:55:45.358Z,11.35
2017-09-03T03:56:46.051Z,11.33
2017-09-03T03:57:46.737Z,11.40
2017-09-03T03:58:47.424Z,11.40
2017-09-03T03:59:48.362Z,11.36
2017-09-03T04:00:49.052Z,11.33
2017-09-03T04:01:49.741Z,11.37
2017-09-03T04:02:50.428Z,11.32
2017-09-03T04:03:51.120Z,11.33
2017-09-03T04:04:52.058Z,11.37
2017-09-03T04:05:52.751Z,11.47
2017-09-03T04:06:53.449Z,11.36
2017-09-03T04:07:54.134Z,11.33
2017-09-03T04:08:54.825Z,11.36
2017-09-03T04:09:55.765Z,11.40
2017-09-03T04:10:56.453Z,11.41
2017-09-03T04:11:57.140Z,11.37
2017-09-03T04:12:57.827Z,11.41
2017-09-03T04:13:58.515Z,11.37
2017-09-03T04:14:59.455Z,11.33
2017-09-03T04:16:00.140Z,11.36
2017-09-03T04:17:00.827Z,11.33
2017-09-03T04:18:01.513Z,11.37
2017-09-03T04:19:02.201Z,11.40
2017-09-03T04:20:03.134Z,11.40
2017-09-03T04:21:03.821Z,11.44
2017-09-03T04:22:04.511Z,11.50
2017-09-03T04:23:05.203Z,11.44
2017-09-03T04:24:05.894Z,11.45
2017-09-03T04:25:06.831Z,11.50
2017-09-03T04:26:07.521Z,11.50
2017-09-03T04:27:08.209Z,11.45
2017-09-03T04:28:08.900Z,11.36
2017-09-03T04:29:09.586Z,11.37
2017-09-03T04:30:10.524Z,11.43
2017-09-03T04:31:11.218Z,11.35
2017-09-03T04:32:11.902Z,11.44
2017-09-03T04:33:12.601Z,11.45
2017-09-03T04:34:13.294Z,11.45
2017-09-03T04:35:14.234Z,11.40
2017-09-03T04:36:14.921Z,11.41
2017-09-03T04:37:15.609Z,11.51
2017-09-03T04:38:16.300Z,11.45
2017-09-03T04:39:17.004Z,11.45
2017-09-03T04:40:17.944Z,11.47
2017-09-03T04:41:18.637Z,11.51
2017-09-03T04:42:19.328Z,11.45
2017-09-03T04:43:20.016Z,11.45
2017-09-03T04:44:20.701Z,11.45
2017-09-03T04:45:21.646Z,11.48
2017-09-03T04:46:22.339Z,11.51
2017-09-03T04:47:23.028Z,11.48
2017-09-03T04:48:23.722Z,11.54
2017-09-03T04:49:24.422Z,11.57
2017-09-03T04:50:25.363Z,11.51
2017-09-03T04:51:26.056Z,11.50
2017-09-03T04:52:26.745Z,11.43
2017-09-03T04:53:27.438Z,11.41
2017-09-03T04:54:28.134Z,11.52
2017-09-03T04:55:29.073Z,11.45
2017-09-03T04:56:29.766Z,11.44
2017-09-03T04:57:30.460Z,11.44
2017-09-03T04:58:31.166Z,11.47
2017-09-03T04:59:31.942Z,11.44
2017-09-03T05:00:32.878Z,11.51
2017-09-03T05:01:33.570Z,11.41
2017-09-03T05:02:34.262Z,11.45
2017-09-03T05:03:34.953Z,11.48
2017-09-03T05:04:35.644Z,11.45
2017-09-03T05:05:36.586Z,11.48
2017-09-03T05:06:37.274Z,11.50
2017-09-03T05:07:37.966Z,11.57
2017-09-03T05:08:38.653Z,11.52
2017-09-03T05:09:39.353Z,11.44
2017-09-03T05:10:40.287Z,11.48
2017-09-03T05:11:40.976Z,11.55
2017-09-03T05:12:41.666Z,11.47
2017-09-03T05:13:42.357Z,11.51
2017-09-03T05:14:43.044Z,11.54
2017-09-03T05:15:43.893Z,11.45
2017-09-03T05:16:44.586Z,11.54
2017-09-03T05:17:45.282Z,11.60
2017-09-03T05:18:45.974Z,11.51
2017-09-03T05:19:46.660Z,11.54
2017-09-03T05:20:47.603Z,11.57
2017-09-03T05:21:48.292Z,11.54
2017-09-03T05:22:48.987Z,11.57
2017-09-03T05:23:49.678Z,11.62
2017-09-03T05:24:50.369Z,11.52
2017-09-03T05:25:51.312Z,11.57
2017-09-03T05:26:52.010Z,11.65
2017-09-03T05:27:52.700Z,11.54
2017-09-03T05:28:53.393Z,11.62
2017-09-03T05:29:54.083Z,11.57
2017-09-03T05:30:55.026Z,11.55
2017-09-03T05:31:55.716Z,11.63
2017-09-03T05:32:56.406Z,11.59
2017-09-03T05:33:57.101Z,11.68
2017-09-03T05:34:57.793Z,11.69
2017-09-03T05:35:58.737Z,11.69
2017-09-03T05:36:59.427Z,11.68
2017-09-03T05:38:00.116Z,11.70
2017-09-03T05:39:00.811Z,11.66
2017-09-03T05:40:01.504Z,11.83
2017-09-03T05:41:02.443Z,11.88
2017-09-03T05:42:03.140Z,11.83
2017-09-03T05:43:03.827Z,11.88
2017-09-03T05:44:04.517Z,11.86
2017-09-03T05:45:05.206Z,11.99
2017-09-03T05:46:06.149Z,11.99
2017-09-03T05:47:06.845Z,12.00
2017-09-03T05:48:07.539Z,11.94
2017-09-03T05:49:08.230Z,12.07
2017-09-03T05:50:08.923Z,11.90
2017-09-03T05:51:09.862Z,11.91
2017-09-03T05:52:10.567Z,11.90
2017-09-03T05:53:11.257Z,11.77
2017-09-03T05:54:11.946Z,11.88
2017-09-03T05:55:12.637Z,11.90
2017-09-03T05:56:13.577Z,11.90
2017-09-03T05:57:14.269Z,12.02
2017-09-03T05:58:14.961Z,12.09
2017-09-03T05:59:15.655Z,12.00
2017-09-03T06:00:16.348Z,11.99
2017-09-03T06:01:17.294Z,12.13
2017-09-03T06:02:17.985Z,12.09
2017-09-03T06:03:18.679Z,12.10
2017-09-03T06:04:19.375Z,12.15
2017-09-03T06:05:20.067Z,12.12
2017-09-03T06:06:21.116Z,12.28
2017-09-03T06:07:21.803Z,12.25
2017-09-03T06:08:22.498Z,12.31
2017-09-03T06:09:23.185Z,12.39
2017-09-03T06:10:23.880Z,12.49
2017-09-03T06:11:24.822Z,12.50
2017-09-03T06:12:25.511Z,12.36
2017-09-03T06:13:26.209Z,12.58
2017-09-03T06:14:26.910Z,12.47
2017-09-03T06:15:27.604Z,12.65
2017-09-03T06:16:28.560Z,12.55
2017-09-03T06:17:29.249Z,12.65
2017-09-03T06:18:29.949Z,12.61
2017-09-03T06:19:30.643Z,12.49
2017-09-03T06:20:31.378Z,12.42
2017-09-03T06:21:32.325Z,12.50
2017-09-03T06:22:33.016Z,12.39
2017-09-03T06:23:33.711Z,12.49
2017-09-03T06:24:34.400Z,12.40
2017-09-03T06:25:35.092Z,12.61
2017-09-03T06:26:36.033Z,12.49
2017-09-03T06:27:36.734Z,12.62
2017-09-03T06:28:37.434Z,12.61
2017-09-03T06:29:38.126Z,12.68
2017-09-03T06:30:38.824Z,12.67
2017-09-03T06:31:39.770Z,12.67
2017-09-03T06:32:40.460Z,12.70
2017-09-03T06:33:41.150Z,12.76
2017-09-03T06:34:41.880Z,12.73
2017-09-03T06:35:42.542Z,12.78
2017-09-03T06:36:43.495Z,12.75
2017-09-03T06:37:44.186Z,12.75
2017-09-03T06:38:44.877Z,12.75
2017-09-03T06:39:45.570Z,12.82
2017-09-03T06:40:46.261Z,12.93
2017-09-03T06:41:47.203Z,12.93
2017-09-03T06:42:47.897Z,12.93
2017-09-03T06:43:48.589Z,12.83
2017-09-03T06:44:49.282Z,12.91
2017-09-03T06:45:49.975Z,12.90
2017-09-03T06:46:50.673Z,12.83
2017-09-03T06:47:51.368Z,12.95
2017-09-03T06:48:52.062Z,12.97
2017-09-03T06:49:52.747Z,13.08
2017-09-03T06:50:53.441Z,12.98
2017-09-03T06:51:54.388Z,12.97
2017-09-03T06:52:55.083Z,12.95
2017-09-03T06:53:55.782Z,12.95
2017-09-03T06:54:56.478Z,13.05
2017-09-03T06:55:57.172Z,12.97
2017-09-03T06:56:57.879Z,12.95
2017-09-03T06:57:58.573Z,13.00
2017-09-03T06:58:59.265Z,13.03
2017-09-03T06:59:59.954Z,13.03
2017-09-03T07:01:00.654Z,13.03
2017-09-03T07:02:01.598Z,13.18
2017-09-03T07:03:02.294Z,13.13
2017-09-03T07:04:02.993Z,13.22
2017-09-03T07:05:03.687Z,13.22
2017-09-03T07:06:04.379Z,13.11
2017-09-03T07:07:05.320Z,13.22
2017-09-03T07:08:06.012Z,13.16
2017-09-03T07:09:06.702Z,13.23
2017-09-03T07:10:07.400Z,13.16
2017-09-03T07:11:08.096Z,13.23
2017-09-03T07:12:09.038Z,13.28
2017-09-03T07:13:09.746Z,13.33
2017-09-03T07:14:10.437Z,13.28
2017-09-03T07:15:11.130Z,13.35
2017-09-03T07:16:11.821Z,13.37
2017-09-03T07:17:12.772Z,13.38
2017-09-03T07:18:13.465Z,13.38
2017-09-03T07:19:14.163Z,13.50
2017-09-03T07:20:14.854Z,13.44
2017-09-03T07:21:15.544Z,13.63
2017-09-03T07:22:16.493Z,13.70
2017-09-03T07:23:17.188Z,13.67
2017-09-03T07:24:17.878Z,13.71
2017-09-03T07:25:18.571Z,13.65
2017-09-03T07:26:19.262Z,13.71
2017-09-03T07:27:20.201Z,13.71
2017-09-03T07:28:20.892Z,13.86
2017-09-03T07:29:21.584Z,13.79
2017-09-03T07:30:22.283Z,13.79
2017-09-03T07:31:22.972Z,13.74
2017-09-03T07:32:23.912Z,13.89
2017-09-03T07:33:24.604Z,13.70
2017-09-03T07:34:25.293Z,13.78
2017-09-03T07:35:25.985Z,13.79
2017-09-03T07:36:26.678Z,13.86
2017-09-03T07:37:27.625Z,13.90
2017-09-03T07:38:28.322Z,13.93
2017-09-03T07:39:29.029Z,13.89
2017-09-03T07:40:29.724Z,13.95
2017-09-03T07:41:30.423Z,13.83
2017-09-03T07:42:31.367Z,13.97
2017-09-03T07:43:32.070Z,13.99
2017-09-03T07:44:32.761Z,13.96
2017-09-03T07:45:33.453Z,14.00
2017-09-03T07:46:34.152Z,14.04
2017-09-03T07:47:35.100Z,14.05
2017-09-03T07:48:35.795Z,14.05
2017-09-03T07:49:36.489Z,14.14
2017-09-03T07:50:37.183Z,14.10
2017-09-03T07:51:37.877Z,14.18
2017-09-03T07:52:38.874Z,14.23
2017-09-03T07:53:39.588Z,14.15
2017-09-03T07:54:40.291Z,14.20
2017-09-03T07:55:40.998Z,14.26
2017-09-03T07:56:41.696Z,14.23
2017-09-03T07:57:42.394Z,14.26
2017-09-03T07:58:43.088Z,14.26
2017-09-03T07:59:43.778Z,14.26
2017-09-03T08:00:44.485Z,14.30
2017-09-03T08:01:45.182Z,14.35
2017-09-03T08:02:46.128Z,14.41
2017-09-03T08:03:46.825Z,14.51
2017-09-03T08:04:47.516Z,14.48
2017-09-03T08:05:48.212Z,14.50
2017-09-03T08:06:48.906Z,14.51
2017-09-03T08:07:49.607Z,14.65
2017-09-03T08:08:50.300Z,14.66
2017-09-03T08:09:50.992Z,14.65
2017-09-03T08:10:51.688Z,14.73
2017-09-03T08:11:52.384Z,14.69
2017-09-03T08:12:53.336Z,14.81
2017-09-03T08:13:54.034Z,14.82
2017-09-03T08:14:54.726Z,14.69
2017-09-03T08:15:55.422Z,14.77
2017-09-03T08:16:56.132Z,14.84
2017-09-03T08:17:57.076Z,14.86
2017-09-03T08:18:57.771Z,14.96
2017-09-03T08:19:58.469Z,14.78
2017-09-03T08:20:59.166Z,14.55
2017-09-03T08:21:59.860Z,14.60
2017-09-03T08:23:00.801Z,14.55
2017-09-03T08:24:01.496Z,14.59
2017-09-03T08:25:02.196Z,14.65
2017-09-03T08:26:02.893Z,14.54
2017-09-03T08:27:03.587Z,14.68
2017-09-03T08:28:04.542Z,14.66
2017-09-03T08:29:05.243Z,14.73
2017-09-03T08:30:05.941Z,14.84
2017-09-03T08:31:06.639Z,14.79
2017-09-03T08:32:07.341Z,14.85
2017-09-03T08:33:08.291Z,14.86
2017-09-03T08:34:08.984Z,14.92
2017-09-03T08:35:09.676Z,15.02
2017-09-03T08:36:10.396Z,15.04
2017-09-03T08:37:11.094Z,15.09
2017-09-03T08:38:12.042Z,15.09
2017-09-03T08:39:12.737Z,15.09
2017-09-03T08:40:13.433Z,15.18
2017-09-03T08:41:14.124Z,15.04
2017-09-03T08:42:14.819Z,15.04
2017-09-03T08:43:15.770Z,15.21
2017-09-03T08:44:16.472Z,15.09
2017-09-03T08:45:17.168Z,15.09
2017-09-03T08:46:17.872Z,15.10
2017-09-03T08:47:18.583Z,15.06
2017-09-03T08:48:19.531Z,15.06
2017-09-03T08:49:20.222Z,15.10
2017-09-03T08:50:20.913Z,15.03
2017-09-03T08:51:21.610Z,15.04
2017-09-03T08:52:22.303Z,15.07
2017-09-03T08:53:23.249Z,15.02
2017-09-03T08:54:23.945Z,15.07
2017-09-03T08:55:24.647Z,15.02
2017-09-03T08:56:25.344Z,14.97
2017-09-03T08:57:26.042Z,15.03
2017-09-03T08:58:26.994Z,15.10
2017-09-03T08:59:27.687Z,15.06
2017-09-03T09:00:28.401Z,15.06
2017-09-03T09:01:29.096Z,15.19
2017-09-03T09:02:29.794Z,15.06
2017-09-03T09:03:30.748Z,14.94
2017-09-03T09:04:31.444Z,15.04
2017-09-03T09:05:32.142Z,15.03
2017-09-03T09:06:32.838Z,14.99
2017-09-03T09:07:33.534Z,14.99
2017-09-03T09:08:34.528Z,15.15
2017-09-03T09:09:35.230Z,15.03
2017-09-03T09:10:35.924Z,15.03
2017-09-03T09:11:36.622Z,15.00
2017-09-03T09:12:37.308Z,15.04
2017-09-03T09:13:38.351Z,15.07
2017-09-03T09:14:39.044Z,15.15
2017-09-03T09:15:39.744Z,15.17
2017-09-03T09:16:40.435Z,15.21
2017-09-03T09:17:41.134Z,15.33
2017-09-03T09:18:42.079Z,15.31
2017-09-03T09:19:42.777Z,15.42
2017-09-03T09:20:43.478Z,15.40
2017-09-03T09:21:44.186Z,15.49
2017-09-03T09:22:44.884Z,15.59
2017-09-03T09:23:45.830Z,15.65
2017-09-03T09:24:46.526Z,15.64
2017-09-03T09:25:47.233Z,15.55
2017-09-03T09:26:47.939Z,15.62
2017-09-03T09:27:48.633Z,15.64
2017-09-03T09:28:49.578Z,15.70
2017-09-03T09:29:50.275Z,15.72
2017-09-03T09:30:50.972Z,15.73
2017-09-03T09:31:51.669Z,15.82
2017-09-03T09:32:52.363Z,15.80
2017-09-03T09:33:53.313Z,15.64
2017-09-03T09:34:54.004Z,15.70
2017-09-03T09:35:54.702Z,15.58
2017-09-03T09:36:55.398Z,15.62
2017-09-03T09:37:56.103Z,15.61
2017-09-03T09:38:56.797Z,15.62
2017-09-03T09:39:57.488Z,15.79
2017-09-03T09:40:58.199Z,15.58
2017-09-03T09:41:58.895Z,15.68
2017-09-03T09:42:59.601Z,15.70
2017-09-03T09:44:00.288Z,15.86
2017-09-03T09:45:00.987Z,15.86
2017-09-03T09:46:01.703Z,16.01
2017-09-03T09:47:02.398Z,16.00
2017-09-03T09:48:03.089Z,16.12
2017-09-03T09:49:04.040Z,16.28
2017-09-03T09:50:04.746Z,16.24
2017-09-03T09:51:05.442Z,16.35
2017-09-03T09:52:06.135Z,16.46
2017-09-03T09:53:06.830Z,16.64
2017-09-03T09:54:07.777Z,16.69
2017-09-03T09:55:08.474Z,16.83
2017-09-03T09:56:09.169Z,16.99
2017-09-03T09:57:09.865Z,16.84
2017-09-03T09:58:10.571Z,16.89
2017-09-03T09:59:11.520Z,16.72
2017-09-03T10:00:12.217Z,16.68
2017-09-03T10:01:12.911Z,16.68
2017-09-03T10:02:13.613Z,16.51
2017-09-03T10:03:14.308Z,16.58
2017-09-03T10:04:15.252Z,16.57
2017-09-03T10:05:15.952Z,16.69
2017-09-03T10:06:16.652Z,16.68
2017-09-03T10:07:17.357Z,16.68
2017-09-03T10:08:18.047Z,16.72
2017-09-03T10:09:19.000Z,16.87
2017-09-03T10:10:19.693Z,16.93
2017-09-03T10:11:20.386Z,17.08
2017-09-03T10:12:21.081Z,17.05
2017-09-03T10:13:21.786Z,17.12
2017-09-03T10:14:22.483Z,17.22
2017-09-03T10:15:23.175Z,17.19
2017-09-03T10:16:23.873Z,17.20
2017-09-03T10:17:24.570Z,17.34
2017-09-03T10:18:25.262Z,17.46
2017-09-03T10:19:26.215Z,17.79
2017-09-03T10:20:26.917Z,18.04
2017-09-03T10:21:27.612Z,18.07
2017-09-03T10:22:28.309Z,18.23
2017-09-03T10:23:29.007Z,18.50
2017-09-03T10:24:30.014Z,18.53
2017-09-03T10:25:30.709Z,18.41
2017-09-03T10:26:31.407Z,18.45
2017-09-03T10:27:32.111Z,18.44
2017-09-03T10:28:32.808Z,18.23
2017-09-03T10:29:33.857Z,18.20
2017-09-03T10:30:34.558Z,18.07
2017-09-03T10:31:35.256Z,18.22
2017-09-03T10:32:35.952Z,18.13
2017-09-03T10:33:36.650Z,18.08
2017-09-03T10:34:37.752Z,18.19
2017-09-03T10:35:38.448Z,18.19
2017-09-03T10:36:39.151Z,18.18
2017-09-03T10:37:39.845Z,18.11
2017-09-03T10:38:40.542Z,18.01
2017-09-03T10:39:41.487Z,17.98
2017-09-03T10:40:42.184Z,18.00
2017-09-03T10:41:42.893Z,17.98
2017-09-03T10:42:43.597Z,17.92
2017-09-03T10:43:44.293Z,17.78
2017-09-03T10:44:45.234Z,17.72
2017-09-03T10:45:45.936Z,17.83
2017-09-03T10:46:46.643Z,17.92
2017-09-03T10:47:47.340Z,17.90
2017-09-03T10:48:48.034Z,17.85
2017-09-03T10:49:48.754Z,17.97
2017-09-03T10:50:49.426Z,17.71
2017-09-03T10:51:50.120Z,17.72
2017-09-03T10:52:50.820Z,17.86
2017-09-03T10:53:51.515Z,17.92
2017-09-03T10:54:52.459Z,17.87
2017-09-03T10:55:53.175Z,17.89
2017-09-03T10:56:53.870Z,17.94
2017-09-03T10:57:54.564Z,17.94
2017-09-03T10:58:55.258Z,18.15
2017-09-03T10:59:56.205Z,18.16
2017-09-03T11:00:56.905Z,18.08
2017-09-03T11:01:57.600Z,18.33
2017-09-03T11:02:58.290Z,18.26
2017-09-03T11:03:58.987Z,18.25
2017-09-03T11:04:59.934Z,18.18
2017-09-03T11:06:00.628Z,18.26
2017-09-03T11:07:01.336Z,18.34
2017-09-03T11:08:02.033Z,18.25
2017-09-03T11:09:02.730Z,18.40
2017-09-03T11:10:03.677Z,18.41
2017-09-03T11:11:04.380Z,18.60
2017-09-03T11:12:05.079Z,18.59
2017-09-03T11:13:05.778Z,18.65
2017-09-03T11:14:06.481Z,18.66
2017-09-03T11:15:07.431Z,18.71
2017-09-03T11:16:08.124Z,18.86
2017-09-03T11:17:08.818Z,18.86
2017-09-03T11:18:09.515Z,18.98
2017-09-03T11:19:10.222Z,19.07
2017-09-03T11:20:11.160Z,18.98
2017-09-03T11:21:11.857Z,19.00
2017-09-03T11:22:12.559Z,19.26
2017-09-03T11:23:13.249Z,19.39
2017-09-03T11:24:13.942Z,19.39
2017-09-03T11:25:14.889Z,19.44
2017-09-03T11:26:15.593Z,19.49
2017-09-03T11:27:16.281Z,19.41
2017-09-03T11:28:16.978Z,19.48
2017-09-03T11:29:17.682Z,19.66
2017-09-03T11:30:18.532Z,19.88
2017-09-03T11:31:19.237Z,20.06
2017-09-03T11:32:19.941Z,20.75
2017-09-03T11:33:20.644Z,21.66
2017-09-03T11:34:21.343Z,22.65
2017-09-03T11:35:22.295Z,23.77
2017-09-03T11:36:22.992Z,25.53
2017-09-03T11:37:23.694Z,26.81
2017-09-03T11:38:24.402Z,27.65
2017-09-03T11:39:25.101Z,28.82
2017-09-03T11:40:29.061Z,29.27
2017-09-03T11:41:29.761Z,29.60
2017-09-03T11:42:30.461Z,30.23
2017-09-03T11:43:31.164Z,30.73
2017-09-03T11:44:31.864Z,30.59
2017-09-03T11:45:32.815Z,30.70
2017-09-03T11:46:33.530Z,31.07
2017-09-03T11:47:34.235Z,31.25
2017-09-03T11:48:34.941Z,31.58
2017-09-03T11:49:35.642Z,31.62
2017-09-03T11:50:36.705Z,31.49
2017-09-03T11:51:37.405Z,31.15
2017-09-03T11:52:38.103Z,30.63
2017-09-03T11:53:38.802Z,29.56
2017-09-03T11:54:39.508Z,29.19
2017-09-03T11:55:40.215Z,29.56
2017-09-03T11:56:40.920Z,29.79
2017-09-03T11:57:41.623Z,30.02
2017-09-03T11:58:42.324Z,30.61
2017-09-03T11:59:43.032Z,30.25
2017-09-03T12:00:43.734Z,30.81
2017-09-03T12:01:44.441Z,31.70
2017-09-03T12:02:45.141Z,32.80
2017-09-03T12:03:45.844Z,33.08
2017-09-03T12:04:46.548Z,32.71
2017-09-03T12:05:47.502Z,33.43
2017-09-03T12:06:48.203Z,34.05
2017-09-03T12:07:48.914Z,34.16
2017-09-03T12:08:49.628Z,34.45
2017-09-03T12:09:50.330Z,33.92
2017-09-03T12:10:51.288Z,34.66
2017-09-03T12:11:51.991Z,34.97
2017-09-03T12:12:52.701Z,35.29
2017-09-03T12:13:53.418Z,34.99
2017-09-03T12:14:54.148Z,36.91
2017-09-03T12:15:55.080Z,36.99
2017-09-03T12:16:55.789Z,37.07
2017-09-03T12:17:56.493Z,37.64
2017-09-03T12:18:57.202Z,37.44
2017-09-03T12:19:57.909Z,38.26
2017-09-03T12:20:58.873Z,37.78
2017-09-03T12:21:59.580Z,38.96
2017-09-03T12:23:00.284Z,38.65
2017-09-03T12:24:00.996Z,38.80
2017-09-03T12:25:01.706Z,37.74
2017-09-03T12:26:02.686Z,37.74
2017-09-03T12:27:03.373Z,37.39
2017-09-03T12:28:04.079Z,37.14
2017-09-03T12:29:04.787Z,38.23
2017-09-03T12:30:05.494Z,37.07
2017-09-03T12:31:06.198Z,35.23
2017-09-03T12:32:06.913Z,33.89
2017-09-03T12:33:07.621Z,31.94
2017-09-03T12:34:08.332Z,30.70
2017-09-03T12:35:09.040Z,29.73
2017-09-03T12:36:09.994Z,28.12
2017-09-03T12:37:10.704Z,27.17
2017-09-03T12:38:11.410Z,27.40
2017-09-03T12:39:12.125Z,28.57
2017-09-03T12:40:12.831Z,29.41
2017-09-03T12:41:13.789Z,30.75
2017-09-03T12:42:14.498Z,32.23
2017-09-03T12:43:15.207Z,33.73
2017-09-03T12:44:15.910Z,34.17
2017-09-03T12:45:16.613Z,34.43
2017-09-03T12:46:17.573Z,35.31
2017-09-03T12:47:18.279Z,35.37
2017-09-03T12:48:18.987Z,36.05
2017-09-03T12:49:19.694Z,36.92
2017-09-03T12:50:20.402Z,37.15
2017-09-03T12:51:21.361Z,37.78
2017-09-03T12:52:22.064Z,37.44
2017-09-03T12:53:22.767Z,36.36
2017-09-03T12:54:23.469Z,34.70
2017-09-03T12:55:24.173Z,34.03
2017-09-03T12:56:24.880Z,33.77
2017-09-03T12:57:25.588Z,34.62
2017-09-03T12:58:26.303Z,34.45
2017-09-03T12:59:27.005Z,35.29
2017-09-03T13:00:27.718Z,35.00
2017-09-03T13:01:28.426Z,35.14
2017-09-03T13:02:29.132Z,34.50